Time;durP1;ratioP1;P1;durP2;ratioP2;P2;SDS_P1;SDS_P2;PMS_P1;PMS_P2;Temp;Humidity;BMP_temperature;BMP_pressure;BME280_temperature;BME280_humidity;BME280_pressure;Samples;Min_cycle;Max_cycle;Signal;HPM_P1;HPM_P2
2021/04/05 00:00:22;;;;;;;12.75;8.50;;;6.30;66.60;;;;;;5072811;28;20024;-76
2021/04/05 00:02:48;;;;;;;12.52;8.50;;;6.30;66.70;;;;;;5072894;28;20028;-77
2021/04/05 00:05:18;;;;;;;12.88;8.38;;;6.30;66.90;;;;;;5071808;28;20081;-77
2021/04/05 00:07:45;;;;;;;12.10;7.85;;;6.30;67.00;;;;;;5072738;28;20097;-76
2021/04/05 00:10:38;;;;;;;12.40;7.72;;;6.30;67.00;;;;;;5070382;28;20025;-76
2021/04/05 00:13:10;;;;;;;14.30;8.35;;;6.30;67.40;;;;;;5071785;28;20106;-77
2021/04/05 00:15:36;;;;;;;13.93;8.52;;;6.30;67.20;;;;;;5070737;28;20036;-77
2021/04/05 00:18:02;;;;;;;12.77;8.40;;;6.30;67.20;;;;;;5072605;28;20517;-75
2021/04/05 00:20:41;;;;;;;11.80;8.60;;;6.30;67.20;;;;;;5072536;28;20070;-77
2021/04/05 00:23:07;;;;;;;12.00;8.85;;;6.30;67.40;;;;;;5072700;28;20382;-77
2021/04/05 00:25:33;;;;;;;13.15;8.02;;;6.30;67.30;;;;;;5072677;28;20048;-76
2021/04/05 00:28:02;;;;;;;13.45;8.80;;;6.30;67.50;;;;;;5072453;28;20134;-78
2021/04/05 00:30:34;;;;;;;15.25;9.25;;;6.30;67.60;;;;;;5074039;28;20035;-76
2021/04/05 00:33:00;;;;;;;11.20;8.60;;;6.20;67.60;;;;;;5057424;28;20025;-77
2021/04/05 00:35:28;;;;;;;13.13;8.20;;;6.30;67.80;;;;;;5072754;28;20074;-77
2021/04/05 00:37:56;;;;;;;15.10;9.00;;;6.20;67.70;;;;;;5072842;28;20058;-77
2021/04/05 00:40:25;;;;;;;16.45;9.73;;;6.20;67.70;;;;;;5073102;28;20549;-77
2021/04/05 00:42:51;;;;;;;15.40;10.48;;;6.20;67.70;;;;;;5070009;28;20374;-77
2021/04/05 00:45:17;;;;;;;17.75;12.00;;;6.20;67.70;;;;;;5072430;28;20020;-77
2021/04/05 00:47:48;;;;;;;19.50;11.90;;;6.20;67.70;;;;;;5071599;28;20045;-77
2021/04/05 00:50:19;;;;;;;19.98;13.18;;;6.20;67.70;;;;;;5070221;28;20025;-77
2021/04/05 00:52:52;;;;;;;20.52;13.40;;;6.20;67.70;;;;;;5072550;28;20029;-77
2021/04/05 00:55:20;;;;;;;21.25;13.02;;;6.20;67.70;;;;;;5071073;28;20048;-77
2021/04/05 00:57:46;;;;;;;20.58;12.68;;;6.20;67.70;;;;;;5071074;28;20111;-77
2021/04/05 01:00:21;;;;;;;17.25;12.13;;;6.20;67.70;;;;;;5072628;28;20104;-76
2021/04/05 01:02:48;;;;;;;19.75;11.30;;;6.30;67.80;;;;;;5072126;28;20430;-77
2021/04/05 01:05:14;;;;;;;18.90;12.63;;;6.30;67.70;;;;;;5070952;28;20446;-77
2021/04/05 01:07:41;;;;;;;20.40;11.43;;;6.30;67.60;;;;;;5072628;28;20056;-77
2021/04/05 01:10:09;;;;;;;16.13;10.68;;;6.30;67.50;;;;;;5072119;28;20031;-78
2021/04/05 01:12:35;;;;;;;15.60;10.65;;;6.30;67.40;;;;;;5070076;28;20038;-77
2021/04/05 01:15:03;;;;;;;15.13;9.27;;;6.40;67.40;;;;;;5072583;28;20028;-77
2021/04/05 01:17:28;;;;;;;18.25;10.73;;;6.40;67.30;;;;;;5071045;28;20070;-77
2021/04/05 01:19:54;;;;;;;14.98;8.98;;;6.30;67.10;;;;;;5072311;28;20044;-78
2021/04/05 01:22:20;;;;;;;14.95;9.68;;;6.30;67.00;;;;;;5072741;28;20040;-77
2021/04/05 01:24:46;;;;;;;17.73;10.27;;;6.30;67.00;;;;;;5072436;28;20028;-77
2021/04/05 01:27:12;;;;;;;15.38;10.27;;;6.20;66.90;;;;;;5054508;28;20347;-77
2021/04/05 01:29:38;;;;;;;19.10;11.05;;;6.20;67.00;;;;;;5071825;28;20029;-77
2021/04/05 01:32:04;;;;;;;14.75;10.80;;;6.20;67.10;;;;;;5071883;28;20063;-77
2021/04/05 01:34:30;;;;;;;13.10;9.60;;;6.10;67.20;;;;;;5072051;28;20052;-77
2021/04/05 01:36:59;;;;;;;18.70;11.73;;;6.10;67.30;;;;;;5071716;28;20040;-77
2021/04/05 01:39:26;;;;;;;20.33;12.55;;;6.10;67.60;;;;;;5071205;28;20025;-78
2021/04/05 01:41:52;;;;;;;21.13;11.65;;;6.10;67.40;;;;;;5072002;28;20037;-77
2021/04/05 01:44:18;;;;;;;16.27;11.15;;;6.00;67.20;;;;;;5071391;28;20031;-77
2021/04/05 01:46:44;;;;;;;18.15;11.77;;;6.00;67.20;;;;;;5072071;28;20078;-77
2021/04/05 01:49:09;;;;;;;16.90;11.45;;;6.00;67.20;;;;;;5071627;28;20029;-77
2021/04/05 01:51:36;;;;;;;18.52;11.57;;;6.00;67.30;;;;;;5074172;28;20020;-77
2021/04/05 01:54:01;;;;;;;17.50;11.10;;;5.90;67.30;;;;;;5074098;28;20078;-77
2021/04/05 01:56:27;;;;;;;16.70;11.30;;;5.90;67.40;;;;;;5075020;28;20016;-77
2021/04/05 01:58:54;;;;;;;19.30;11.43;;;5.90;67.40;;;;;;5075089;28;20067;-77
2021/04/05 02:01:23;;;;;;;19.67;11.85;;;5.90;67.40;;;;;;5073810;28;20139;-77
2021/04/05 02:03:50;;;;;;;19.20;11.98;;;5.80;67.40;;;;;;5075103;28;20039;-76
2021/04/05 02:06:24;;;;;;;19.92;12.35;;;5.80;67.50;;;;;;5074955;28;20070;-77
2021/04/05 02:08:51;;;;;;;17.40;11.23;;;5.80;67.50;;;;;;5073849;28;20023;-77
2021/04/05 02:11:19;;;;;;;22.65;12.10;;;5.80;67.40;;;;;;5074951;28;20020;-77
2021/04/05 02:13:47;;;;;;;20.25;11.77;;;5.80;67.40;;;;;;5075011;28;20033;-77
2021/04/05 02:16:15;;;;;;;19.15;11.80;;;5.80;67.30;;;;;;5070979;28;20107;-77
2021/04/05 02:18:41;;;;;;;19.98;11.77;;;5.80;67.30;;;;;;5074921;28;20135;-77
2021/04/05 02:21:12;;;;;;;17.40;11.05;;;5.80;67.30;;;;;;5075055;28;20017;-77
2021/04/05 02:23:38;;;;;;;17.30;10.85;;;5.80;67.30;;;;;;5072874;28;20020;-77
2021/04/05 02:26:07;;;;;;;20.70;13.02;;;5.70;67.20;;;;;;5074322;28;20129;-79
2021/04/05 02:28:38;;;;;;;20.55;12.15;;;5.70;67.30;;;;;;5072062;28;20370;-77
2021/04/05 02:31:04;;;;;;;21.85;11.52;;;5.70;67.40;;;;;;5074372;28;20028;-77
2021/04/05 02:33:30;;;;;;;18.00;11.52;;;5.60;67.40;;;;;;5073280;28;20032;-77
2021/04/05 02:35:56;;;;;;;18.80;12.18;;;5.60;67.40;;;;;;5074711;28;20484;-76
2021/04/05 02:38:22;;;;;;;19.95;12.27;;;5.60;67.60;;;;;;5074441;28;20107;-77
2021/04/05 02:40:47;;;;;;;22.20;12.80;;;5.50;67.60;;;;;;5074087;28;20108;-77
2021/04/05 02:43:14;;;;;;;21.92;13.15;;;5.50;67.70;;;;;;5073982;28;20151;-77
2021/04/05 02:45:41;;;;;;;22.50;12.95;;;5.50;67.90;;;;;;5074402;28;20025;-77
2021/04/05 02:48:09;;;;;;;19.95;12.65;;;5.50;68.10;;;;;;5074993;28;20024;-78
2021/04/05 02:50:36;;;;;;;25.98;13.75;;;5.50;68.10;;;;;;5075425;28;20466;-77
2021/04/05 02:53:07;;;;;;;24.67;13.38;;;5.50;68.20;;;;;;5075419;28;20417;-78
2021/04/05 02:55:35;;;;;;;24.65;13.43;;;5.50;68.40;;;;;;5077922;28;20051;-77
2021/04/05 02:58:06;;;;;;;23.13;14.18;;;5.50;68.30;;;;;;5075160;28;20028;-78
2021/04/05 03:00:33;;;;;;;26.55;14.82;;;5.50;68.30;;;;;;5074999;28;20466;-77
2021/04/05 03:02:59;;;;;;;25.17;15.15;;;5.50;68.20;;;;;;5074459;28;20025;-77
2021/04/05 03:05:26;;;;;;;26.02;15.40;;;5.50;68.30;;;;;;5075988;28;20036;-77
2021/04/05 03:07:53;;;;;;;28.35;16.13;;;5.50;68.40;;;;;;5075337;28;20040;-76
2021/04/05 03:10:21;;;;;;;24.58;14.73;;;5.50;68.50;;;;;;5075285;28;20032;-77
2021/04/05 03:12:50;;;;;;;27.40;15.98;;;5.50;68.60;;;;;;5075144;28;20405;-77
2021/04/05 03:15:17;;;;;;;24.88;15.00;;;5.40;68.70;;;;;;5074035;28;20074;-77
2021/04/05 03:17:43;;;;;;;27.70;15.80;;;5.40;68.70;;;;;;5074881;28;20039;-77
2021/04/05 03:20:19;;;;;;;27.38;14.25;;;5.40;68.80;;;;;;5074811;28;20052;-77
2021/04/05 03:22:45;;;;;;;23.63;14.13;;;5.40;68.90;;;;;;5074850;28;20040;-77
2021/04/05 03:25:20;;;;;;;25.85;15.68;;;5.30;69.00;;;;;;5074813;28;20031;-77
2021/04/05 03:27:48;;;;;;;28.88;15.95;;;5.40;69.30;;;;;;5074430;28;20029;-77
2021/04/05 03:30:23;;;;;;;26.33;15.35;;;5.30;69.20;;;;;;5074552;28;20060;-77
2021/04/05 03:33:05;;;;;;;25.80;14.43;;;5.30;69.10;;;;;;5074533;28;20039;-77
2021/04/05 03:35:36;;;;;;;26.02;15.57;;;5.40;69.00;;;;;;5074517;28;20022;-77
2021/04/05 03:38:03;;;;;;;27.75;15.27;;;5.40;68.80;;;;;;5074633;28;20028;-77
2021/04/05 03:40:30;;;;;;;25.00;15.52;;;5.40;68.80;;;;;;5074438;28;20024;-78
2021/04/05 03:43:34;;;;;;;28.33;15.95;;;5.40;68.80;;;;;;5074390;28;20032;-77
2021/04/05 03:46:04;;;;;;;27.25;15.25;;;5.40;68.90;;;;;;5074426;28;20031;-77
2021/04/05 03:48:51;;;;;;;36.40;17.92;;;5.40;68.70;;;;;;5074455;28;20062;-77
2021/04/05 03:51:23;;;;;;;29.55;16.60;;;5.50;68.80;;;;;;5074080;28;20025;-78
2021/04/05 03:54:04;;;;;;;28.80;15.93;;;5.50;68.70;;;;;;5074213;28;20547;-77
2021/04/05 03:56:58;;;;;;;31.10;15.98;;;5.50;68.80;;;;;;5074363;28;20360;-77
2021/04/05 03:59:28;;;;;;;27.73;16.80;;;5.60;68.80;;;;;;5073512;28;20547;-78
2021/04/05 04:01:59;;;;;;;29.58;17.52;;;5.60;68.60;;;;;;5074086;28;20060;-78
2021/04/05 04:04:44;;;;;;;28.73;17.55;;;5.60;68.50;;;;;;5074256;28;20043;-79
2021/04/05 04:07:21;;;;;;;35.37;17.97;;;5.60;68.40;;;;;;5073997;28;20054;-79
2021/04/05 04:09:51;;;;;;;33.67;18.48;;;5.60;68.40;;;;;;5072552;28;20064;-78
2021/04/05 04:12:18;;;;;;;34.58;18.20;;;5.70;68.30;;;;;;5073891;28;20040;-78
2021/04/05 04:14:44;;;;;;;34.70;20.58;;;5.70;68.20;;;;;;5073774;28;20032;-78
2021/04/05 04:17:11;;;;;;;36.10;21.38;;;5.70;68.10;;;;;;5072603;28;20421;-78
2021/04/05 04:19:38;;;;;;;44.00;22.77;;;5.80;68.20;;;;;;5073893;28;20458;-79
2021/04/05 04:22:06;;;;;;;46.45;24.75;;;5.80;68.20;;;;;;5074051;28;20111;-80
2021/04/05 04:24:35;;;;;;;50.03;28.35;;;5.90;68.30;;;;;;5074039;28;20032;-79
2021/04/05 04:27:03;;;;;;;45.40;26.77;;;5.90;68.20;;;;;;5072940;28;20171;-77
2021/04/05 04:29:28;;;;;;;49.55;25.27;;;6.00;68.80;;;;;;5073621;28;20021;-77
2021/04/05 04:31:55;;;;;;;37.42;21.63;;;6.10;68.00;;;;;;5073849;28;20463;-77
2021/04/05 04:34:22;;;;;;;34.80;20.08;;;6.10;67.80;;;;;;5073075;28;20044;-80
2021/04/05 04:36:48;;;;;;;35.55;20.25;;;6.20;67.70;;;;;;5073292;28;20021;-79
2021/04/05 04:39:15;;;;;;;32.10;18.88;;;6.30;67.70;;;;;;5074398;28;20034;-78
2021/04/05 04:41:43;;;;;;;37.20;20.67;;;6.40;68.10;;;;;;5073750;28;20025;-77
2021/04/05 04:44:10;;;;;;;35.42;20.10;;;6.40;67.40;;;;;;5073620;28;20113;-79
2021/04/05 04:46:37;;;;;;;37.50;20.60;;;6.50;67.30;;;;;;5073420;28;20334;-79
2021/04/05 04:49:05;;;;;;;28.60;19.25;;;6.60;67.20;;;;;;5073345;28;20067;-78
2021/04/05 04:51:31;;;;;;;34.78;19.98;;;6.70;67.20;;;;;;5073128;28;20020;-77
2021/04/05 04:53:59;;;;;;;34.58;21.13;;;6.80;67.10;;;;;;5073471;28;20024;-79
2021/04/05 04:56:26;;;;;;;43.22;22.63;;;6.90;66.90;;;;;;5073095;28;20428;-79
2021/04/05 04:58:57;;;;;;;35.55;21.02;;;7.00;66.70;;;;;;5073054;28;20544;-78
2021/04/05 05:01:24;;;;;;;35.30;23.20;;;7.10;66.60;;;;;;5073712;28;20387;-78
2021/04/05 05:03:56;;;;;;;37.53;22.65;;;7.20;66.40;;;;;;5073180;28;20454;-76
2021/04/05 05:06:23;;;;;;;38.38;22.05;;;7.30;66.20;;;;;;5072640;28;20036;-78
2021/04/05 05:08:50;;;;;;;41.45;23.40;;;7.40;66.10;;;;;;5072740;28;20029;-77
2021/04/05 05:11:16;;;;;;;42.90;23.98;;;7.50;65.90;;;;;;5071005;28;20078;-79
2021/04/05 05:13:43;;;;;;;37.47;21.38;;;7.60;65.80;;;;;;5073208;28;20074;-77
2021/04/05 05:16:09;;;;;;;36.42;20.10;;;7.70;65.60;;;;;;5068697;28;20505;-79
2021/04/05 05:18:36;;;;;;;23.35;15.95;;;7.90;65.60;;;;;;5073393;28;20068;-78
2021/04/05 05:21:07;;;;;;;26.42;15.25;;;8.00;65.50;;;;;;5073809;28;20024;-77
2021/04/05 05:23:36;;;;;;;24.92;12.38;;;8.10;65.40;;;;;;5072530;28;20033;-77
2021/04/05 05:26:04;;;;;;;16.60;11.82;;;8.30;65.20;;;;;;5076090;28;20045;-78
2021/04/05 05:28:35;;;;;;;18.20;12.55;;;8.40;64.80;;;;;;5076909;28;20124;-77
2021/04/05 05:31:02;;;;;;;18.58;11.95;;;8.40;64.50;;;;;;5076570;28;20025;-77
2021/04/05 05:33:28;;;;;;;19.77;12.05;;;8.50;64.40;;;;;;5076515;28;20072;-77
2021/04/05 05:35:55;;;;;;;20.65;13.38;;;8.70;64.50;;;;;;5076616;28;20032;-77
2021/04/05 05:38:22;;;;;;;19.55;12.88;;;8.90;64.30;;;;;;5075837;28;20078;-77
2021/04/05 05:40:49;;;;;;;23.38;14.40;;;9.00;64.00;;;;;;5076619;28;20138;-78
2021/04/05 05:43:28;;;;;;;20.65;12.95;;;9.20;63.60;;;;;;5075086;28;20035;-78
2021/04/05 05:45:56;;;;;;;24.88;14.25;;;9.30;63.20;;;;;;5076096;28;20020;-77
2021/04/05 05:49:01;;;;;;;20.08;13.32;;;9.40;62.90;;;;;;5074871;28;20029;-77
2021/04/05 05:51:38;;;;;;;16.67;11.55;;;9.50;62.60;;;;;;5076171;28;20036;-78
2021/04/05 05:54:23;;;;;;;21.40;12.60;;;9.60;62.20;;;;;;5074974;28;20032;-77
2021/04/05 05:57:03;;;;;;;19.73;12.75;;;9.60;61.90;;;;;;5076553;28;20028;-77
2021/04/05 05:59:38;;;;;;;19.20;12.40;;;9.70;61.80;;;;;;5076302;28;20063;-77
2021/04/05 06:02:35;;;;;;;19.13;12.27;;;9.70;62.40;;;;;;5075042;28;20086;-77
2021/04/05 06:05:10;;;;;;;20.20;11.45;;;9.80;61.60;;;;;;5075172;28;20406;-78
2021/04/05 06:07:55;;;;;;;21.77;12.68;;;9.80;61.30;;;;;;5074391;28;20039;-77
2021/04/05 06:10:39;;;;;;;;;;;9.90;61.20;;;;;;5076398;28;20085;-77
2021/04/05 06:13:08;;;;;;;14.50;9.77;;;10.00;61.30;;;;;;5074684;28;19912;-77
2021/04/05 06:16:13;;;;;;;15.55;9.43;;;10.10;60.80;;;;;;5075555;28;20029;-77
2021/04/05 06:18:51;;;;;;;;;;;10.20;60.40;;;;;;5073086;28;20051;-78
2021/04/05 06:21:38;;;;;;;17.45;8.82;;;10.40;60.60;;;;;;5074211;28;20277;-77
2021/04/05 06:24:11;;;;;;;9.07;6.65;;;10.50;59.60;;;;;;5073164;28;20031;-78
2021/04/05 06:26:50;;;;;;;9.52;7.10;;;10.60;59.00;;;;;;5072420;28;20066;-79
2021/04/05 06:29:40;;;;;;;13.15;8.52;;;10.60;58.50;;;;;;5072101;28;20032;-78
2021/04/05 06:32:31;;;;;;;16.58;9.07;;;10.70;58.40;;;;;;5072423;28;20024;-78
2021/04/05 06:35:15;;;;;;;14.80;8.57;;;10.80;58.20;;;;;;5073607;28;20046;-78
2021/04/05 06:37:55;;;;;;;14.45;9.18;;;10.90;58.00;;;;;;5073635;28;20374;-78
2021/04/05 06:40:24;;;;;;;11.90;8.30;;;11.10;57.60;;;;;;5072819;28;20116;-77
2021/04/05 06:43:35;;;;;;;14.15;9.70;;;11.20;57.20;;;;;;5075063;28;20107;-79
2021/04/05 06:46:15;;;;;;;14.68;10.00;;;11.20;56.70;;;;;;5072242;28;20026;-78
2021/04/05 06:48:49;;;;;;;15.57;11.85;;;11.30;56.60;;;;;;5072326;28;20049;-79
2021/04/05 06:51:42;;;;;;;20.27;11.32;;;11.30;56.50;;;;;;5070691;28;20109;-78
2021/04/05 06:54:46;;;;;;;14.98;11.13;;;11.40;56.40;;;;;;5070704;28;20028;-79
2021/04/05 06:57:14;;;;;;;16.80;9.93;;;11.60;56.30;;;;;;5074513;28;20116;-77
2021/04/05 07:00:05;;;;;;;12.18;8.32;;;11.70;56.00;;;;;;5074277;28;20020;-78
2021/04/05 07:02:48;;;;;;;10.95;7.32;;;11.80;55.20;;;;;;5073070;28;20020;-78
2021/04/05 07:05:37;;;;;;;14.50;9.80;;;11.90;54.60;;;;;;5071485;28;20127;-78
2021/04/05 07:08:44;;;;;;;18.13;10.95;;;12.00;54.50;;;;;;5072468;28;20024;-77
2021/04/05 07:11:29;;;;;;;18.75;11.65;;;12.10;54.50;;;;;;5061463;28;20197;-77
2021/04/05 07:14:14;;;;;;;;;;;12.10;54.30;;;;;;5071780;28;20029;-77
2021/04/05 07:17:08;;;;;;;14.80;10.23;;;12.20;54.60;;;;;;5071673;28;19946;-76
2021/04/05 07:19:54;;;;;;;15.90;10.38;;;12.20;53.90;;;;;;5073260;28;20033;-78
2021/04/05 07:22:41;;;;;;;18.85;11.02;;;12.20;53.60;;;;;;5071764;28;20016;-77
2021/04/05 07:25:08;;;;;;;18.98;11.88;;;12.30;53.60;;;;;;5072333;28;20500;-78
2021/04/05 07:28:11;;;;;;;21.25;11.20;;;12.30;53.60;;;;;;5073612;28;20020;-78
2021/04/05 07:30:57;;;;;;;16.85;11.00;;;12.30;53.40;;;;;;5069769;28;20506;-77
2021/04/05 07:33:38;;;;;;;16.27;11.20;;;12.50;53.10;;;;;;5073334;28;20036;-78
2021/04/05 07:36:32;;;;;;;15.55;10.73;;;12.70;52.80;;;;;;5074218;28;20028;-78
2021/04/05 07:39:23;;;;;;;15.20;9.57;;;13.00;52.40;;;;;;5070911;28;20029;-77
2021/04/05 07:42:44;;;;;;;13.25;9.40;;;13.20;52.00;;;;;;5073195;28;20032;-76
2021/04/05 07:45:24;;;;;;;11.50;8.80;;;13.40;51.20;;;;;;5030965;28;20104;-76
2021/04/05 07:48:08;;;;;;;10.07;7.53;;;13.50;50.50;;;;;;5030454;28;20026;-79
2021/04/05 07:50:56;;;;;;;12.43;7.55;;;13.70;50.00;;;;;;5059978;28;20119;-76
2021/04/05 07:53:40;;;;;;;13.25;7.82;;;13.90;49.40;;;;;;5070375;28;20441;-79
2021/04/05 07:56:19;;;;;;;9.73;7.57;;;14.20;49.60;;;;;;5072161;28;20028;-76
2021/04/05 07:59:06;;;;;;;12.82;7.68;;;14.40;48.50;;;;;;5068906;28;20254;-77
2021/04/05 08:02:09;;;;;;;11.38;8.07;;;14.70;48.20;;;;;;5069995;28;20086;-78
2021/04/05 08:05:01;;;;;;;16.45;10.25;;;15.00;47.80;;;;;;5047797;28;20137;-78
2021/04/05 08:07:32;;;;;;;15.48;10.60;;;15.40;47.50;;;;;;5072498;28;20063;-77
2021/04/05 08:10:06;;;;;;;31.05;11.60;;;15.70;48.20;;;;;;5070524;28;20016;-77
2021/04/05 08:12:37;;;;;;;18.30;8.68;;;16.20;46.60;;;;;;5072307;28;20041;-77
2021/04/05 08:15:39;;;;;;;21.92;11.73;;;16.40;45.60;;;;;;5072264;28;20378;-77
2021/04/05 08:18:14;;;;;;;16.00;7.95;;;16.50;44.80;;;;;;5060708;28;20033;-77
2021/04/05 08:21:16;;;;;;;15.85;8.70;;;16.60;44.10;;;;;;5070564;28;20421;-78
2021/04/05 08:24:00;;;;;;;10.10;7.22;;;16.60;43.90;;;;;;5070801;28;20051;-77
2021/04/05 08:26:56;;;;;;;9.13;6.25;;;16.90;43.60;;;;;;5071592;28;20413;-78
2021/04/05 08:29:40;;;;;;;10.82;5.18;;;17.30;43.00;;;;;;5070876;28;20054;-78
2021/04/05 08:32:24;;;;;;;10.30;6.05;;;18.00;42.20;;;;;;5071057;28;20031;-78
2021/04/05 08:35:05;;;;;;;7.82;5.40;;;18.60;41.60;;;;;;5071858;28;20042;-78
2021/04/05 08:37:45;;;;;;;7.80;5.68;;;19.40;40.60;;;;;;5072277;28;20027;-78
2021/04/05 08:40:19;;;;;;;7.47;5.50;;;20.20;40.00;;;;;;5072044;28;20347;-78
2021/04/05 08:42:54;;;;;;;10.70;5.40;;;21.10;39.50;;;;;;5071273;28;20136;-77
2021/04/05 08:45:23;;;;;;;8.45;5.18;;;22.20;38.40;;;;;;5069943;28;20390;-77
2021/04/05 08:48:05;;;;;;;6.85;4.75;;;23.30;37.20;;;;;;5072365;28;20020;-77
2021/04/05 08:50:34;;;;;;;4.88;3.92;;;24.40;35.40;;;;;;5071904;28;20025;-77
2021/04/05 08:53:02;;;;;;;8.25;3.72;;;25.30;34.50;;;;;;5071618;28;20052;-78
2021/04/05 08:55:31;;;;;;;6.20;4.03;;;26.20;33.50;;;;;;5072087;28;20463;-76
2021/04/05 08:58:10;;;;;;;5.43;4.78;;;27.00;32.50;;;;;;5069729;28;20028;-77
2021/04/05 09:00:40;;;;;;;6.55;5.22;;;27.70;31.00;;;;;;5069491;28;20099;-77
2021/04/05 09:03:11;;;;;;;6.22;4.78;;;28.30;30.60;;;;;;5071093;28;20021;-78
2021/04/05 09:05:44;;;;;;;7.68;4.45;;;28.80;29.80;;;;;;5069916;28;20044;-78
2021/04/05 09:08:14;;;;;;;;;;;29.00;29.00;;;;;;5072406;28;20082;-78
2021/04/05 09:11:05;;;;;;;12.68;5.50;;;28.50;30.10;;;;;;5071895;28;19955;-78
2021/04/05 09:13:39;;;;;;;10.45;4.75;;;27.40;29.10;;;;;;5071322;28;20028;-78
2021/04/05 09:16:37;;;;;;;7.18;5.32;;;25.80;29.10;;;;;;5071853;28;20047;-77
2021/04/05 09:19:21;;;;;;;6.78;4.10;;;25.00;29.70;;;;;;5070084;28;20032;-77
2021/04/05 09:22:09;;;;;;;5.40;4.15;;;25.70;29.90;;;;;;5070713;28;20039;-77
2021/04/05 09:25:11;;;;;;;7.00;5.55;;;26.80;29.60;;;;;;5071226;28;20020;-78
2021/04/05 09:27:55;;;;;;;6.75;5.30;;;27.20;29.00;;;;;;5068888;28;20059;-78
2021/04/05 09:30:33;;;;;;;9.30;5.18;;;26.30;28.80;;;;;;5070149;28;20565;-77
2021/04/05 09:33:28;;;;;;;6.00;5.03;;;26.00;29.00;;;;;;5069831;28;20486;-77
2021/04/05 09:35:57;;;;;;;12.57;5.60;;;26.50;29.00;;;;;;5072696;28;20024;-77
2021/04/05 09:38:45;;;;;;;7.65;5.32;;;26.50;28.70;;;;;;5072811;28;20024;-77
2021/04/05 09:41:32;;;;;;;7.35;5.38;;;25.90;28.60;;;;;;5073369;28;20027;-77
2021/04/05 09:44:22;;;;;;;6.78;5.40;;;24.90;28.70;;;;;;5072321;28;20474;-78
2021/04/05 09:47:09;;;;;;;7.22;5.78;;;23.80;29.00;;;;;;5071872;28;20039;-77
2021/04/05 09:50:12;;;;;;;8.20;4.90;;;24.00;29.60;;;;;;5072772;28;20024;-76
2021/04/05 09:53:09;;;;;;;8.77;5.40;;;24.00;29.20;;;;;;5071255;28;20033;-76
2021/04/05 09:55:40;;;;;;;5.65;4.70;;;23.30;29.30;;;;;;5072676;28;20056;-78
2021/04/05 09:58:49;;;;;;;5.93;5.05;;;22.40;29.60;;;;;;5072918;28;20390;-78
2021/04/05 10:01:20;;;;;;;5.90;4.45;;;21.40;30.00;;;;;;5072969;28;20025;-77
2021/04/05 10:03:49;;;;;;;6.53;4.90;;;20.60;30.40;;;;;;5073043;28;20119;-77
2021/04/05 10:06:18;;;;;;;9.63;6.80;;;19.90;31.20;;;;;;5072639;28;20081;-79
2021/04/05 10:08:46;;;;;;;4.88;3.58;;;19.40;31.50;;;;;;5072257;28;20025;-79
2021/04/05 10:11:13;;;;;;;7.47;4.50;;;19.00;31.40;;;;;;5073701;28;20043;-78
2021/04/05 10:13:49;;;;;;;4.10;3.50;;;18.60;31.50;;;;;;5075490;28;20475;-78
2021/04/05 10:16:16;;;;;;;4.50;3.47;;;18.30;31.40;;;;;;5076144;28;20107;-79
2021/04/05 10:18:52;;;;;;;6.07;4.05;;;18.10;31.60;;;;;;5075693;28;20044;-77
2021/04/05 10:21:20;;;;;;;4.72;3.88;;;18.10;32.00;;;;;;5076132;28;20031;-78
2021/04/05 10:23:48;;;;;;;6.43;4.50;;;18.10;32.20;;;;;;5075711;28;20493;-77
2021/04/05 10:26:15;;;;;;;5.38;3.80;;;18.30;32.30;;;;;;5075643;28;20174;-78
2021/04/05 10:28:43;;;;;;;9.18;3.40;;;18.50;32.30;;;;;;5075951;28;20036;-80
2021/04/05 10:31:14;;;;;;;7.63;4.00;;;18.70;32.10;;;;;;5074629;28;20029;-78
2021/04/05 10:33:43;;;;;;;7.45;5.47;;;18.90;31.90;;;;;;5071790;28;20043;-77
2021/04/05 10:36:12;;;;;;;6.85;4.60;;;19.00;31.80;;;;;;5074045;28;20537;-78
2021/04/05 10:38:39;;;;;;;8.20;5.20;;;19.00;31.80;;;;;;5074827;28;20024;-77
2021/04/05 10:41:07;;;;;;;11.75;5.20;;;19.10;31.90;;;;;;5074428;28;20017;-78
2021/04/05 10:43:38;;;;;;;6.15;4.00;;;19.20;32.00;;;;;;5072963;28;20028;-78
2021/04/05 10:46:22;;;;;;;8.60;4.30;;;19.30;31.80;;;;;;5073271;28;20373;-83
2021/04/05 10:49:01;;;;;;;4.60;4.15;;;19.30;31.70;;;;;;5073618;28;20029;-78
2021/04/05 10:51:44;;;;;;;12.10;4.65;;;19.40;31.70;;;;;;5073689;28;20020;-81
2021/04/05 10:54:16;;;;;;;10.25;4.45;;;19.80;31.60;;;;;;5072085;28;20044;-79
2021/04/05 10:56:48;;;;;;;7.18;4.53;;;20.00;31.30;;;;;;5074789;28;20074;-80
2021/04/05 10:59:37;;;;;;;5.88;4.63;;;20.30;31.00;;;;;;5072985;28;20023;-79
2021/04/05 11:02:18;;;;;;;6.78;4.97;;;20.60;30.90;;;;;;5074373;28;20028;-79
2021/04/05 11:04:57;;;;;;;5.75;4.53;;;22.10;30.90;;;;;;5069613;28;20086;-78
2021/04/05 11:07:26;;;;;;;5.72;4.45;;;23.80;30.10;;;;;;5071921;28;20059;-79
2021/04/05 11:09:55;;;;;;;8.32;4.60;;;25.20;29.30;;;;;;5072585;28;20028;-79
2021/04/05 11:12:23;;;;;;;6.90;4.28;;;26.60;28.50;;;;;;5073663;28;20016;-82
2021/04/05 11:14:51;;;;;;;6.03;4.60;;;27.60;27.60;;;;;;5074104;28;20041;-79
2021/04/05 11:17:19;;;;;;;7.30;4.72;;;28.50;27.20;;;;;;5071012;28;20071;-78
2021/04/05 11:19:51;;;;;;;9.65;5.07;;;29.30;26.80;;;;;;5072170;28;20091;-79
2021/04/05 11:22:25;;;;;;;6.70;5.22;;;29.60;26.30;;;;;;5070049;28;20438;-79
2021/04/05 11:25:05;;;;;;;11.95;5.35;;;30.20;26.10;;;;;;5073535;28;20028;-80
2021/04/05 11:27:40;;;;;;;14.45;6.75;;;30.50;25.50;;;;;;5073376;28;20466;-80
2021/04/05 11:30:07;;;;;;;12.55;8.18;;;30.10;25.30;;;;;;5073740;28;20024;-79
2021/04/05 11:32:36;;;;;;;14.80;8.60;;;29.60;25.40;;;;;;5073187;28;20040;-79
2021/04/05 11:35:05;;;;;;;14.50;8.27;;;29.70;25.40;;;;;;5073682;28;20083;-77
2021/04/05 11:37:36;;;;;;;15.57;8.60;;;29.50;25.20;;;;;;5073173;28;20024;-77
2021/04/05 11:40:23;;;;;;;20.77;14.13;;;29.10;25.20;;;;;;5072497;28;20032;-77
2021/04/05 11:42:52;;;;;;;20.65;15.07;;;28.00;25.20;;;;;;5073390;28;20086;-78
2021/04/05 11:45:53;;;;;;;21.33;11.02;;;26.70;25.60;;;;;;5070944;28;20466;-78
2021/04/05 11:48:23;;;;;;;21.80;11.65;;;25.40;25.70;;;;;;5071271;28;20468;-77
2021/04/05 11:50:50;;;;;;;8.82;6.95;;;24.30;26.30;;;;;;5073319;28;20043;-77
2021/04/05 11:53:48;;;;;;;12.10;7.70;;;23.40;27.40;;;;;;5073534;28;20035;-77
2021/04/05 11:56:23;;;;;;;10.05;7.15;;;22.50;27.30;;;;;;5073399;28;20021;-77
2021/04/05 11:59:18;;;;;;;11.48;6.97;;;21.70;28.00;;;;;;5073329;28;20033;-78
2021/04/05 12:01:48;;;;;;;15.55;7.82;;;20.90;28.60;;;;;;5071161;28;20039;-77
2021/04/05 12:04:20;;;;;;;7.07;5.40;;;20.20;29.40;;;;;;5073179;28;20048;-77
2021/04/05 12:06:52;;;;;;;20.25;7.10;;;19.60;29.20;;;;;;5071456;28;20051;-77
2021/04/05 12:09:33;;;;;;;17.85;6.57;;;19.00;29.70;;;;;;5073542;28;20485;-77
2021/04/05 12:12:03;;;;;;;11.43;6.32;;;18.40;30.00;;;;;;5073269;28;20112;-76
2021/04/05 12:14:31;;;;;;;15.23;7.43;;;18.20;30.40;;;;;;5072898;28;20040;-77
2021/04/05 12:17:00;;;;;;;12.77;7.43;;;18.00;30.60;;;;;;5072948;28;20066;-78
2021/04/05 12:19:36;;;;;;;15.73;7.60;;;17.80;31.10;;;;;;5071779;28;20044;-77
2021/04/05 12:22:03;;;;;;;27.42;9.40;;;17.70;31.40;;;;;;5073741;28;20028;-76
2021/04/05 12:24:32;;;;;;;23.90;11.13;;;17.70;31.50;;;;;;5073742;28;20382;-77
2021/04/05 12:27:03;;;;;;;18.25;9.73;;;17.70;31.50;;;;;;5073563;28;20031;-75
2021/04/05 12:29:30;;;;;;;23.02;9.68;;;17.80;31.70;;;;;;5073347;28;20433;-78
2021/04/05 12:31:57;;;;;;;25.45;12.82;;;17.90;31.90;;;;;;5073560;28;20103;-78
2021/04/05 12:34:35;;;;;;;28.23;11.93;;;18.00;31.90;;;;;;5072065;28;20427;-77
2021/04/05 12:37:21;;;;;;;18.17;9.75;;;18.00;31.90;;;;;;5073415;28;20032;-77
2021/04/05 12:39:52;;;;;;;15.25;6.53;;;18.00;31.70;;;;;;5053121;28;20024;-76
2021/04/05 12:42:19;;;;;;;7.40;4.82;;;18.00;31.30;;;;;;5053311;28;20371;-77
2021/04/05 12:44:51;;;;;;;14.07;7.60;;;18.10;30.90;;;;;;5068764;28;20111;-77
2021/04/05 12:47:18;;;;;;;20.27;9.77;;;18.10;31.00;;;;;;5053509;28;20032;-77
2021/04/05 12:49:47;;;;;;;20.75;10.90;;;18.10;31.40;;;;;;5063429;28;20048;-77
2021/04/05 12:52:18;;;;;;;21.25;10.73;;;18.00;31.60;;;;;;5073414;28;20395;-79
2021/04/05 12:54:49;;;;;;;16.48;9.80;;;17.70;32.30;;;;;;5073154;28;20032;-76
2021/04/05 12:57:23;;;;;;;24.00;10.88;;;17.50;31.80;;;;;;5072990;28;20021;-77
2021/04/05 12:59:48;;;;;;;23.05;12.23;;;17.20;32.10;;;;;;5073182;28;20021;-78
2021/04/05 13:02:17;;;;;;;19.58;10.43;;;17.00;32.40;;;;;;5072557;28;20504;-79
2021/04/05 13:05:04;;;;;;;19.50;10.77;;;16.80;32.60;;;;;;5073022;28;20024;-79
2021/04/05 13:07:52;;;;;;;25.42;10.35;;;16.60;32.60;;;;;;5062997;28;20028;-79
2021/04/05 13:10:26;;;;;;;27.10;11.13;;;16.50;32.80;;;;;;5070530;28;20484;-79
2021/04/05 13:12:57;;;;;;;24.67;9.32;;;16.30;32.70;;;;;;5069109;28;20095;-79
2021/04/05 13:15:32;;;;;;;43.33;16.05;;;16.20;32.80;;;;;;5072629;28;20158;-80
2021/04/05 13:18:03;;;;;;;;;;;15.90;32.80;;;;;;5071550;28;20016;-79